createdAt,value
2022-08-27T00:00:14.263Z,9.711835
2022-08-27T00:01:14.250Z,9.711852
2022-08-27T00:02:14.298Z,9.711903
2022-08-27T00:03:14.244Z,9.712020
2022-08-27T00:04:14.301Z,9.711926
2022-08-27T00:05:14.234Z,9.711873
2022-08-27T00:06:14.214Z,9.711934
2022-08-27T00:07:14.215Z,9.711856
2022-08-27T00:08:14.210Z,9.711815
2022-08-27T00:09:14.195Z,9.711910
2022-08-27T00:10:14.190Z,9.711949
2022-08-27T00:11:14.830Z,9.711950
2022-08-27T00:12:14.171Z,9.711967
2022-08-27T00:13:14.160Z,9.711909
2022-08-27T00:14:14.157Z,9.711915
2022-08-27T00:15:14.154Z,9.711951
2022-08-27T00:16:14.195Z,9.712153
2022-08-27T00:17:14.135Z,9.712220
2022-08-27T00:18:14.125Z,9.712012
2022-08-27T00:19:14.121Z,9.711940
2022-08-27T00:20:14.110Z,9.711900
2022-08-27T00:21:14.098Z,9.711949
2022-08-27T00:22:14.099Z,9.712024
2022-08-27T00:23:14.089Z,9.711987
2022-08-27T00:24:14.065Z,9.712111
2022-08-27T00:25:14.070Z,9.712276
2022-08-27T00:26:14.052Z,9.712348
2022-08-27T00:27:14.056Z,9.712665
2022-08-27T00:28:14.037Z,9.712521
2022-08-27T00:29:14.026Z,9.711986
2022-08-27T00:30:14.035Z,9.712055
2022-08-27T00:45:04.979Z,9.709792
2022-08-27T00:46:05.050Z,9.710693
2022-08-27T00:47:04.952Z,9.711571
2022-08-27T00:48:04.943Z,9.711978
2022-08-27T00:49:04.937Z,9.712207
2022-08-27T00:50:04.931Z,9.711468
2022-08-27T00:51:04.934Z,9.711570
2022-08-27T00:52:04.912Z,9.711782
2022-08-27T00:53:04.901Z,9.711782
2022-08-27T00:54:04.897Z,9.711966
2022-08-27T00:55:04.888Z,9.711977
2022-08-27T00:56:04.877Z,9.712214
2022-08-27T00:57:04.868Z,9.711619
2022-08-27T00:58:04.923Z,9.711719
2022-08-27T00:59:04.852Z,9.711656
2022-08-27T01:00:04.860Z,9.711624
2022-08-27T01:01:04.939Z,9.711544
2022-08-27T01:02:04.896Z,9.711653
2022-08-27T01:03:04.821Z,9.711644
2022-08-27T01:04:04.811Z,9.711700
2022-08-27T01:05:04.820Z,9.711665
2022-08-27T01:06:04.799Z,9.711689
2022-08-27T01:07:04.795Z,9.711638
2022-08-27T01:08:05.565Z,9.711739
2022-08-27T01:09:04.798Z,9.711649
2022-08-27T01:10:04.763Z,9.711738
2022-08-27T01:11:04.752Z,9.711726
2022-08-27T01:12:04.744Z,9.711752
2022-08-27T01:13:04.768Z,9.711632
2022-08-27T01:14:04.740Z,9.711558
2022-08-27T01:15:04.732Z,9.711558
2022-08-27T01:16:04.764Z,9.711869
2022-08-27T01:17:04.706Z,9.711661
2022-08-27T01:18:04.704Z,9.711463
2022-08-27T01:19:04.704Z,9.711690
2022-08-27T01:20:04.679Z,9.711740
2022-08-27T01:21:04.668Z,9.711901
2022-08-27T01:22:05.667Z,9.711794
2022-08-27T01:23:04.720Z,9.711800
2022-08-27T01:24:04.652Z,9.711784
2022-08-27T01:25:04.653Z,9.711745
2022-08-27T01:26:04.635Z,9.711742
2022-08-27T01:27:04.624Z,9.711641
2022-08-27T01:28:04.613Z,9.711620
2022-08-27T01:29:04.607Z,9.711588
2022-08-27T01:30:04.607Z,9.711731
2022-08-27T01:31:04.639Z,9.711785
2022-08-27T01:32:04.624Z,9.711634
2022-08-27T01:33:04.582Z,9.711615
2022-08-27T01:34:04.574Z,9.711586
2022-08-27T01:35:04.570Z,9.711615
2022-08-27T01:36:04.548Z,9.711590
2022-08-27T01:37:04.544Z,9.711615
2022-08-27T01:38:04.546Z,9.711653
2022-08-27T01:39:04.534Z,9.711476
2022-08-27T01:40:04.598Z,9.711534
2022-08-27T01:41:04.511Z,9.711468
2022-08-27T01:42:04.501Z,9.711463
2022-08-27T01:43:04.515Z,9.711534
2022-08-27T01:44:04.490Z,9.711560
2022-08-27T01:45:05.662Z,9.711493
2022-08-27T01:46:04.474Z,9.711485
2022-08-27T01:47:04.542Z,9.711513
2022-08-27T01:48:04.460Z,9.711592
2022-08-27T01:49:04.457Z,9.711679
2022-08-27T01:50:04.448Z,9.711576
2022-08-27T01:51:04.436Z,9.711590
2022-08-27T01:52:04.425Z,9.711690
2022-08-27T01:53:04.458Z,9.711669
2022-08-27T01:54:04.410Z,9.711583
2022-08-27T01:55:04.414Z,9.711642
2022-08-27T01:56:04.394Z,9.711469
2022-08-27T01:57:04.420Z,9.711626
2022-08-27T01:58:04.425Z,9.711575
2022-08-27T01:59:04.412Z,9.711252
2022-08-27T02:00:04.359Z,9.711363
2022-08-27T02:01:04.427Z,9.711161
2022-08-27T02:02:04.421Z,9.711244
2022-08-27T02:03:04.355Z,9.711452
2022-08-27T02:04:04.332Z,9.711388
2022-08-27T02:05:04.326Z,9.711422
2022-08-27T02:06:04.307Z,9.711611
2022-08-27T02:07:04.306Z,9.711617
2022-08-27T02:08:04.320Z,9.711196
2022-08-27T02:09:05.084Z,9.711548
2022-08-27T02:10:04.294Z,9.711798
2022-08-27T02:11:04.273Z,9.711680
2022-08-27T02:12:04.261Z,9.711236
2022-08-27T02:13:04.287Z,9.711092
2022-08-27T02:14:05.574Z,9.711423
2022-08-27T02:15:05.247Z,9.711816
2022-08-27T02:16:04.279Z,9.711720
2022-08-27T02:17:04.223Z,9.711271
2022-08-27T02:18:04.324Z,9.711756
2022-08-27T02:19:04.226Z,9.711600
2022-08-27T02:20:04.208Z,9.711707
2022-08-27T02:21:04.201Z,9.711693
2022-08-27T02:22:04.184Z,9.711635
2022-08-27T02:23:04.171Z,9.711689
2022-08-27T02:24:04.173Z,9.711518
2022-08-27T02:25:04.160Z,9.711569
2022-08-27T02:26:05.089Z,9.711679
2022-08-27T02:27:04.137Z,9.712050
2022-08-27T02:28:04.189Z,9.711973
2022-08-27T02:29:04.116Z,9.711895
2022-08-27T02:30:05.116Z,9.711935
2022-08-27T02:31:04.217Z,9.711880
2022-08-27T02:32:04.100Z,9.711812
2022-08-27T02:33:04.114Z,9.711926
2022-08-27T02:34:04.080Z,9.711649
2022-08-27T02:35:04.074Z,9.711679
2022-08-27T02:36:04.111Z,9.711739
2022-08-27T02:37:04.056Z,9.711747
2022-08-27T02:38:04.130Z,9.711656
2022-08-27T02:39:04.043Z,9.711645
2022-08-27T02:40:04.067Z,9.711619
2022-08-27T02:41:04.041Z,9.711602
2022-08-27T02:42:04.023Z,9.711639
2022-08-27T02:43:04.012Z,9.711583
2022-08-27T02:44:04.002Z,9.711575
2022-08-27T02:45:04.990Z,9.711590
2022-08-27T02:46:03.997Z,9.711598
2022-08-27T02:47:03.996Z,9.711582
2022-08-27T02:48:04.028Z,9.711584
2022-08-27T02:49:03.963Z,9.711638
2022-08-27T02:50:03.957Z,9.711619
2022-08-27T02:51:03.964Z,9.711610
2022-08-27T02:52:03.941Z,9.711570
2022-08-27T02:53:03.927Z,9.711559
2022-08-27T02:54:03.917Z,9.711506
2022-08-27T02:55:03.918Z,9.711568
2022-08-27T02:56:03.921Z,9.711616
2022-08-27T02:57:03.890Z,9.711625
2022-08-27T02:58:03.887Z,9.711616
2022-08-27T02:59:03.886Z,9.711605
2022-08-27T03:00:03.868Z,9.711589
2022-08-27T03:01:03.885Z,9.711588
2022-08-27T03:02:03.964Z,9.711611
2022-08-27T03:03:03.898Z,9.711603
2022-08-27T03:04:03.836Z,9.711581
2022-08-27T03:05:04.706Z,9.711561
2022-08-27T03:06:03.828Z,9.711591
2022-08-27T03:07:03.823Z,9.711566
2022-08-27T03:08:03.838Z,9.711557
2022-08-27T03:09:03.801Z,9.711572
2022-08-27T03:10:03.802Z,9.711650
2022-08-27T03:11:03.787Z,9.711633
2022-08-27T03:12:03.778Z,9.711611
2022-08-27T03:13:03.760Z,9.711638
2022-08-27T03:14:03.761Z,9.711556
2022-08-27T03:15:03.749Z,9.711535
2022-08-27T03:16:03.801Z,9.711647
2022-08-27T03:17:03.740Z,9.711595
2022-08-27T03:18:03.772Z,9.711588
2022-08-27T03:19:03.726Z,9.711563
2022-08-27T03:20:03.717Z,9.711531
2022-08-27T03:21:03.706Z,9.711579
2022-08-27T03:22:03.698Z,9.711504
2022-08-27T03:23:03.690Z,9.711672
2022-08-27T03:24:11.408Z,9.711729
2022-08-27T03:25:04.662Z,9.711668
2022-08-27T03:26:03.663Z,9.711591
2022-08-27T03:27:03.663Z,9.711693
2022-08-27T03:28:04.268Z,9.711624
2022-08-27T03:29:04.635Z,9.711631
2022-08-27T03:30:04.171Z,9.711644
2022-08-27T03:31:04.668Z,9.711458
2022-08-27T03:32:03.610Z,9.711519
2022-08-27T03:33:03.635Z,9.711557
2022-08-27T03:34:03.590Z,9.711550
2022-08-27T03:35:03.586Z,9.711603
2022-08-27T03:36:03.609Z,9.711633
2022-08-27T03:37:03.567Z,9.711617
2022-08-27T03:38:03.691Z,9.711536
2022-08-27T03:39:03.552Z,9.711596
2022-08-27T03:40:03.558Z,9.711602
2022-08-27T03:41:03.550Z,9.711612
2022-08-27T03:42:03.523Z,9.711582
2022-08-27T03:43:03.517Z,9.711617
2022-08-27T03:44:03.501Z,9.711642
2022-08-27T03:45:03.499Z,9.711651
2022-08-27T03:46:03.490Z,9.711645
2022-08-27T03:47:03.476Z,9.711596
2022-08-27T03:48:03.478Z,9.711558
2022-08-27T03:49:03.475Z,9.711592
2022-08-27T03:50:03.454Z,9.711698
2022-08-27T03:51:03.452Z,9.711664
2022-08-27T03:52:04.448Z,9.711576
2022-08-27T03:53:03.429Z,9.711730
2022-08-27T03:54:03.432Z,9.711731
2022-08-27T03:55:03.414Z,9.711652
2022-08-27T03:56:03.410Z,9.711419
2022-08-27T03:57:03.397Z,9.711325
2022-08-27T03:58:04.396Z,9.711552
2022-08-27T03:59:03.499Z,9.711598
2022-08-27T04:00:03.371Z,9.711607
2022-08-27T04:01:03.377Z,9.711555
2022-08-27T04:02:03.423Z,9.711524
2022-08-27T04:03:03.440Z,9.711469
2022-08-27T04:04:03.347Z,9.711468
2022-08-27T04:05:03.336Z,9.711375
2022-08-27T04:06:03.327Z,9.711341
2022-08-27T04:07:03.315Z,9.711523
2022-08-27T04:08:03.328Z,9.711521
2022-08-27T04:09:03.300Z,9.711738
2022-08-27T04:10:03.292Z,9.711577
2022-08-27T04:11:03.278Z,9.711504
2022-08-27T04:12:03.272Z,9.711616
2022-08-27T04:13:03.271Z,9.711627
2022-08-27T04:14:03.256Z,9.711512
2022-08-27T04:15:04.251Z,9.711518
2022-08-27T04:16:03.343Z,9.711285
2022-08-27T04:17:03.225Z,9.711624
2022-08-27T04:18:04.334Z,9.711956
2022-08-27T04:19:03.232Z,9.712439
2022-08-27T04:20:31.727Z,9.712870
2022-08-27T04:21:05.203Z,9.713108
2022-08-27T04:22:03.198Z,9.713172
2022-08-27T04:23:03.209Z,9.712484
2022-08-27T04:24:03.172Z,9.712337
2022-08-27T04:25:03.193Z,9.712027
2022-08-27T04:26:04.160Z,9.711647
2022-08-27T04:27:03.162Z,9.711764
2022-08-27T04:28:03.155Z,9.711862
2022-08-27T04:29:03.157Z,9.711923
2022-08-27T04:30:03.136Z,9.711533
2022-08-27T04:31:03.217Z,9.711664
2022-08-27T04:32:03.109Z,9.711855
2022-08-27T04:33:03.114Z,9.712131
2022-08-27T04:34:03.111Z,9.712302
2022-08-27T04:35:03.085Z,9.712194
2022-08-27T04:36:03.090Z,9.712218
2022-08-27T04:37:03.072Z,9.712511
2022-08-27T04:38:03.151Z,9.712399
2022-08-27T04:39:03.057Z,9.712258
2022-08-27T04:40:03.109Z,9.711973
2022-08-27T04:41:03.047Z,9.712096
2022-08-27T04:42:03.032Z,9.712172
2022-08-27T04:43:03.030Z,9.712219
2022-08-27T04:44:03.027Z,9.712150
2022-08-27T04:45:03.012Z,9.712000
2022-08-27T04:46:03.027Z,9.712060
2022-08-27T04:47:03.009Z,9.712159
2022-08-27T04:48:03.059Z,9.712220
2022-08-27T04:49:02.989Z,9.712282
2022-08-27T04:50:05.586Z,9.712218
2022-08-27T04:51:02.970Z,9.712141
2022-08-27T04:52:02.974Z,9.712411
2022-08-27T04:53:02.949Z,9.712564
2022-08-27T04:54:02.940Z,9.712774
2022-08-27T04:55:02.940Z,9.712844
2022-08-27T04:56:02.929Z,9.712663
2022-08-27T04:57:02.926Z,9.712307
2022-08-27T04:58:03.010Z,9.712514
2022-08-27T04:59:02.929Z,9.712397
2022-08-27T05:00:02.891Z,9.712078
2022-08-27T05:01:02.890Z,9.711707
2022-08-27T05:02:04.732Z,9.711720
2022-08-27T05:03:02.873Z,9.711787
2022-08-27T05:04:03.721Z,9.711872
2022-08-27T05:05:02.895Z,9.711852
2022-08-27T05:06:02.861Z,9.711733
2022-08-27T05:07:02.835Z,9.711712
2022-08-27T05:08:02.829Z,9.711477
2022-08-27T05:09:02.848Z,9.711353
2022-08-27T05:10:02.821Z,9.711011
2022-08-27T05:11:02.816Z,9.711055
2022-08-27T05:12:02.805Z,9.710766
2022-08-27T05:13:02.796Z,9.710496
2022-08-27T05:14:03.663Z,9.711169
2022-08-27T05:15:02.774Z,9.710792
2022-08-27T05:16:02.803Z,9.711065
2022-08-27T05:17:02.761Z,9.711650
2022-08-27T05:18:02.766Z,9.711948
2022-08-27T05:19:02.770Z,9.712097
2022-08-27T05:20:02.787Z,9.712028
2022-08-27T05:21:02.745Z,9.711903
2022-08-27T05:22:03.232Z,9.712081
2022-08-27T05:23:02.730Z,9.711989
2022-08-27T05:24:03.656Z,9.711804
2022-08-27T05:25:02.691Z,9.711860
2022-08-27T05:26:02.684Z,9.712040
2022-08-27T05:27:02.684Z,9.712250
2022-08-27T05:28:02.672Z,9.712241
2022-08-27T05:29:02.685Z,9.712254
2022-08-27T05:30:02.720Z,9.712072
2022-08-27T05:31:02.719Z,9.711996
2022-08-27T05:32:02.658Z,9.711835
2022-08-27T05:33:02.628Z,9.711757
2022-08-27T05:34:03.617Z,9.711373
2022-08-27T05:35:03.622Z,9.711188
2022-08-27T05:36:02.611Z,9.711985
2022-08-27T05:37:02.595Z,9.711803
2022-08-27T05:38:02.593Z,9.711533
2022-08-27T05:39:02.602Z,9.711468
2022-08-27T05:40:02.606Z,9.711645
2022-08-27T05:41:02.572Z,9.711666
2022-08-27T05:42:02.580Z,9.711637
2022-08-27T05:43:02.560Z,9.711624
2022-08-27T05:44:10.423Z,9.711617
2022-08-27T05:45:03.544Z,9.711628
2022-08-27T05:46:02.589Z,9.711613
2022-08-27T05:47:02.518Z,9.711626
2022-08-27T05:48:02.516Z,9.711563
2022-08-27T05:49:02.522Z,9.711545
2022-08-27T05:50:02.506Z,9.711621
2022-08-27T05:51:02.496Z,9.711680
2022-08-27T05:52:02.490Z,9.711638
2022-08-27T05:53:02.471Z,9.711627
2022-08-27T05:54:06.783Z,9.711618
2022-08-27T05:55:04.480Z,9.711611
2022-08-27T05:56:03.162Z,9.711591
2022-08-27T05:57:02.449Z,9.711617
2022-08-27T05:58:02.435Z,9.711628
2022-08-27T05:59:02.445Z,9.711654
2022-08-27T06:00:02.418Z,9.711616
2022-08-27T06:01:05.041Z,9.711603
2022-08-27T06:02:03.403Z,9.711633
2022-08-27T06:03:02.515Z,9.711639
2022-08-27T06:04:02.402Z,9.711628
2022-08-27T06:05:02.421Z,9.711614
2022-08-27T06:06:02.371Z,9.711641
2022-08-27T06:07:02.360Z,9.711575
2022-08-27T06:08:02.367Z,9.711645
2022-08-27T06:09:02.351Z,9.711732
2022-08-27T06:10:02.389Z,9.711626
2022-08-27T06:11:02.330Z,9.711624
2022-08-27T06:12:02.320Z,9.711661
2022-08-27T06:13:02.386Z,9.711638
2022-08-27T06:14:02.305Z,9.711662
2022-08-27T06:15:02.302Z,9.711506
2022-08-27T06:16:02.334Z,9.711641
2022-08-27T06:17:02.285Z,9.711662
2022-08-27T06:18:02.285Z,9.711580
2022-08-27T06:19:02.278Z,9.711680
2022-08-27T06:20:02.251Z,9.711720
2022-08-27T06:21:02.286Z,9.711767
2022-08-27T06:22:10.704Z,9.711634
2022-08-27T06:23:03.303Z,9.711535
2022-08-27T06:24:02.235Z,9.711823
2022-08-27T06:25:02.216Z,9.711748
2022-08-27T06:26:03.196Z,9.711656
2022-08-27T06:27:02.235Z,9.711892
2022-08-27T06:28:02.211Z,9.711906
2022-08-27T06:29:02.209Z,9.711727
2022-08-27T06:30:02.182Z,9.711779
2022-08-27T06:31:02.202Z,9.711674
2022-08-27T06:32:02.158Z,9.711762
2022-08-27T06:33:02.143Z,9.711714
2022-08-27T06:34:07.343Z,9.711819
2022-08-27T06:35:03.637Z,9.711680
2022-08-27T06:36:02.195Z,9.711786
2022-08-27T06:37:02.114Z,9.712154
2022-08-27T06:38:02.111Z,9.712011
2022-08-27T06:39:02.841Z,9.711858
2022-08-27T06:40:02.175Z,9.711930
2022-08-27T06:41:02.098Z,9.711924
2022-08-27T06:42:02.078Z,9.711738
2022-08-27T06:43:02.091Z,9.711767
2022-08-27T06:44:02.082Z,9.711616
2022-08-27T06:45:02.044Z,9.711669
2022-08-27T06:46:02.060Z,9.711492
2022-08-27T06:47:02.695Z,9.711817
2022-08-27T06:48:02.023Z,9.711612
2022-08-27T06:49:02.024Z,9.711447
2022-08-27T06:50:02.016Z,9.710885
2022-08-27T06:51:02.121Z,9.710892
2022-08-27T06:52:02.022Z,9.711525
2022-08-27T06:53:01.982Z,9.711796
2022-08-27T06:54:01.978Z,9.712140
2022-08-27T06:55:01.978Z,9.712339
2022-08-27T06:56:01.967Z,9.711769
2022-08-27T06:57:01.950Z,9.711710
2022-08-27T06:58:01.935Z,9.711697
2022-08-27T06:59:01.973Z,9.711651
2022-08-27T07:00:01.927Z,9.711699
2022-08-27T07:01:02.033Z,9.711744
2022-08-27T07:02:01.907Z,9.711679
2022-08-27T07:03:01.930Z,9.711788
2022-08-27T07:04:01.900Z,9.711770
2022-08-27T07:05:01.919Z,9.711655
2022-08-27T07:06:01.880Z,9.711596
2022-08-27T07:07:01.868Z,9.711687
2022-08-27T07:08:01.862Z,9.711642
2022-08-27T07:09:01.872Z,9.711718
2022-08-27T07:10:01.863Z,9.711683
2022-08-27T07:11:01.840Z,9.711659
2022-08-27T07:12:01.829Z,9.711667
2022-08-27T07:13:01.814Z,9.711646
2022-08-27T07:14:01.810Z,9.711698
2022-08-27T07:15:01.801Z,9.711737
2022-08-27T07:16:01.873Z,9.711724
2022-08-27T07:17:01.789Z,9.711720
2022-08-27T07:18:01.787Z,9.711704
2022-08-27T07:19:02.417Z,9.711695
2022-08-27T07:20:01.772Z,9.711727
2022-08-27T07:21:01.757Z,9.711687
2022-08-27T07:22:01.753Z,9.711700
2022-08-27T07:23:01.788Z,9.711707
2022-08-27T07:24:01.743Z,9.711696
2022-08-27T07:25:01.717Z,9.711714
2022-08-27T07:26:01.712Z,9.711692
2022-08-27T07:27:01.716Z,9.711683
2022-08-27T07:28:01.698Z,9.711713
2022-08-27T07:29:01.702Z,9.711717
2022-08-27T07:30:01.797Z,9.711743
2022-08-27T07:31:01.853Z,9.711813
2022-08-27T07:32:01.680Z,9.711727
2022-08-27T07:33:02.693Z,9.711725
2022-08-27T07:34:01.688Z,9.711633
2022-08-27T07:35:03.238Z,9.711629
2022-08-27T07:36:02.234Z,9.711491
2022-08-27T07:37:01.621Z,9.711500
2022-08-27T07:38:03.276Z,9.711683
2022-08-27T07:39:02.083Z,9.711686
2022-08-27T07:40:01.635Z,9.711581
2022-08-27T07:41:01.585Z,9.711656
2022-08-27T07:42:01.598Z,9.711714
2022-08-27T07:43:01.570Z,9.711773
2022-08-27T07:44:02.591Z,9.711639
2022-08-27T07:45:01.554Z,9.711885
2022-08-27T07:46:01.585Z,9.711829
2022-08-27T07:47:01.556Z,9.711960
2022-08-27T07:48:01.536Z,9.712536
2022-08-27T07:49:01.558Z,9.712385
2022-08-27T07:50:01.522Z,9.712748
2022-08-27T07:51:02.204Z,9.712363
2022-08-27T07:52:01.494Z,9.711973
2022-08-27T07:53:01.502Z,9.711565
2022-08-27T07:54:01.489Z,9.711627
2022-08-27T07:55:01.476Z,9.711780
2022-08-27T07:56:02.207Z,9.712307
2022-08-27T07:57:01.460Z,9.712055
2022-08-27T07:58:01.451Z,9.712324
2022-08-27T07:59:01.469Z,9.712083
2022-08-27T08:00:01.429Z,9.712155
2022-08-27T08:01:01.446Z,9.711743
2022-08-27T08:02:01.580Z,9.711841
2022-08-27T08:03:01.415Z,9.712168
2022-08-27T08:04:02.285Z,9.711899
2022-08-27T08:05:01.392Z,9.711899
2022-08-27T08:06:01.381Z,9.711802
2022-08-27T08:07:01.385Z,9.711803
2022-08-27T08:08:01.376Z,9.711838
2022-08-27T08:09:01.361Z,9.711761
2022-08-27T08:10:01.338Z,9.711723
2022-08-27T08:11:02.340Z,9.711684
2022-08-27T08:12:01.341Z,9.711663
2022-08-27T08:13:01.339Z,9.711686
2022-08-27T08:14:01.343Z,9.711570
2022-08-27T08:15:01.308Z,9.711676
2022-08-27T08:16:01.302Z,9.711598
2022-08-27T08:17:01.336Z,9.711735
2022-08-27T08:18:01.423Z,9.711716
2022-08-27T08:19:01.293Z,9.711704
2022-08-27T08:20:24.064Z,9.711656
2022-08-27T08:21:03.261Z,9.711643
2022-08-27T08:22:05.013Z,9.711699
2022-08-27T08:23:02.264Z,9.711740
2022-08-27T08:24:01.246Z,9.711729
2022-08-27T08:25:01.237Z,9.711701
2022-08-27T08:26:01.230Z,9.711751
2022-08-27T08:27:06.407Z,9.711737
2022-08-27T08:28:03.313Z,9.711690
2022-08-27T08:29:01.199Z,9.711653
2022-08-27T08:30:01.198Z,9.711714
2022-08-27T08:31:01.237Z,9.711757
2022-08-27T08:32:01.185Z,9.711761
2022-08-27T08:33:01.177Z,9.711711
2022-08-27T08:34:01.186Z,9.711732
2022-08-27T08:35:01.169Z,9.711743
2022-08-27T08:36:01.226Z,9.711709
2022-08-27T08:37:01.150Z,9.711695
2022-08-27T08:38:01.131Z,9.711735
2022-08-27T08:39:01.151Z,9.711778
2022-08-27T08:40:01.140Z,9.711684
2022-08-27T08:41:01.723Z,9.711631
2022-08-27T08:42:01.103Z,9.711716
2022-08-27T08:43:01.086Z,9.711715
2022-08-27T08:44:05.318Z,9.711684
2022-08-27T08:45:02.075Z,9.711759
2022-08-27T08:46:01.177Z,9.711701
2022-08-27T08:47:01.062Z,9.711630
2022-08-27T08:48:01.053Z,9.711718
2022-08-27T08:49:01.041Z,9.711729
2022-08-27T08:50:01.031Z,9.711625
2022-08-27T08:51:01.115Z,9.711633
2022-08-27T08:52:01.031Z,9.711766
2022-08-27T08:53:01.006Z,9.711718
2022-08-27T08:54:01.023Z,9.711727
2022-08-27T08:55:00.997Z,9.711702
2022-08-27T08:56:01.027Z,9.711722
2022-08-27T08:57:00.978Z,9.711668
2022-08-27T08:58:01.016Z,9.711637
2022-08-27T08:59:00.986Z,9.711787
2022-08-27T09:00:00.973Z,9.711749
2022-08-27T09:01:01.057Z,9.711662
2022-08-27T09:02:00.985Z,9.711753
2022-08-27T09:03:00.933Z,9.711654
2022-08-27T09:04:01.014Z,9.711617
2022-08-27T09:05:00.917Z,9.711632
2022-08-27T09:06:00.901Z,9.711589
2022-08-27T09:07:00.892Z,9.711626
2022-08-27T09:08:15.413Z,9.711593
2022-08-27T09:09:03.734Z,9.711612
2022-08-27T09:10:00.884Z,9.711564
2022-08-27T09:11:04.736Z,9.711570
2022-08-27T09:12:00.853Z,9.711587
2022-08-27T09:13:00.850Z,9.711571
2022-08-27T09:14:01.824Z,9.711569
2022-08-27T09:15:02.750Z,9.711754
2022-08-27T09:16:00.826Z,9.711673
2022-08-27T09:17:00.840Z,9.711598
2022-08-27T09:18:00.800Z,9.711498
2022-08-27T09:19:00.797Z,9.711574
2022-08-27T09:20:00.785Z,9.711636
2022-08-27T09:21:00.797Z,9.711654
2022-08-27T09:22:01.777Z,9.711573
2022-08-27T09:23:00.762Z,9.711636
2022-08-27T09:24:01.314Z,9.711670
2022-08-27T09:25:00.735Z,9.711758
2022-08-27T09:26:01.754Z,9.711769
2022-08-27T09:27:00.741Z,9.711848
2022-08-27T09:28:00.724Z,9.711966
2022-08-27T09:29:00.713Z,9.711938
2022-08-27T09:30:00.712Z,9.711821
2022-08-27T09:31:00.780Z,9.711602
2022-08-27T09:32:00.730Z,9.711880
2022-08-27T09:33:00.694Z,9.711788
2022-08-27T09:34:00.684Z,9.711895
2022-08-27T09:35:00.668Z,9.712002
2022-08-27T09:36:00.689Z,9.712022
2022-08-27T09:37:00.654Z,9.711828
2022-08-27T09:38:00.649Z,9.711905
2022-08-27T09:39:00.645Z,9.711843
2022-08-27T09:40:00.662Z,9.711758
2022-08-27T09:41:00.625Z,9.711781
2022-08-27T09:42:00.622Z,9.711863
2022-08-27T09:43:00.725Z,9.711930
2022-08-27T09:44:00.632Z,9.711791
2022-08-27T09:45:00.599Z,9.711685
2022-08-27T09:46:00.654Z,9.711678
2022-08-27T09:47:00.579Z,9.711750
2022-08-27T09:48:00.562Z,9.711805
2022-08-27T09:49:00.574Z,9.711823
2022-08-27T09:50:00.585Z,9.711744
2022-08-27T09:51:01.546Z,9.711668
2022-08-27T09:52:00.529Z,9.711784
2022-08-27T09:53:00.532Z,9.711755
2022-08-27T09:54:00.527Z,9.711524
2022-08-27T09:55:00.510Z,9.711672
2022-08-27T09:56:00.621Z,9.711646
2022-08-27T09:57:00.492Z,9.711734
2022-08-27T09:58:00.489Z,9.711689
2022-08-27T09:59:00.519Z,9.711703
2022-08-27T10:00:00.469Z,9.711744
2022-08-27T10:01:00.585Z,9.711626
2022-08-27T10:02:00.469Z,9.711643
2022-08-27T10:03:00.447Z,9.711797
2022-08-27T10:04:00.498Z,9.711606
2022-08-27T10:05:00.433Z,9.711514
2022-08-27T10:06:00.419Z,9.711670
2022-08-27T10:07:00.415Z,9.711719
2022-08-27T10:08:00.419Z,9.711877
2022-08-27T10:09:03.872Z,9.711719
2022-08-27T10:10:02.414Z,9.711819
2022-08-27T10:11:00.389Z,9.711922
2022-08-27T10:12:00.404Z,9.711716
2022-08-27T10:13:00.377Z,9.711674
2022-08-27T10:14:00.364Z,9.711918
2022-08-27T10:15:00.348Z,9.712041
2022-08-27T10:16:00.377Z,9.711822
2022-08-27T10:17:00.867Z,9.711885
2022-08-27T10:18:00.331Z,9.711853
2022-08-27T10:19:00.327Z,9.711920
2022-08-27T10:20:00.297Z,9.711926
2022-08-27T10:21:05.535Z,9.711917
2022-08-27T10:22:01.295Z,9.711867
2022-08-27T10:23:00.350Z,9.711940
2022-08-27T10:24:00.304Z,9.712147
2022-08-27T10:25:00.861Z,9.711978
2022-08-27T10:26:00.295Z,9.711726
2022-08-27T10:27:00.248Z,9.711764
2022-08-27T10:28:00.253Z,9.711798
2022-08-27T10:29:00.381Z,9.711930
2022-08-27T10:30:00.226Z,9.711944
2022-08-27T10:31:00.230Z,9.712037
2022-08-27T10:32:00.331Z,9.711950
2022-08-27T10:33:03.633Z,9.711852
2022-08-27T10:34:00.226Z,9.711868
2022-08-27T10:35:00.184Z,9.711979
2022-08-27T10:36:00.186Z,9.711965
2022-08-27T10:37:00.169Z,9.711908
2022-08-27T10:38:00.175Z,9.711811
2022-08-27T10:39:00.150Z,9.711769
2022-08-27T10:40:00.227Z,9.711753
2022-08-27T10:41:00.138Z,9.711735
2022-08-27T10:42:00.122Z,9.711705
2022-08-27T10:43:00.890Z,9.711663
2022-08-27T10:44:00.121Z,9.711754
2022-08-27T10:45:00.172Z,9.711687
2022-08-27T10:46:00.179Z,9.711656
2022-08-27T10:47:00.100Z,9.711661
2022-08-27T10:48:01.203Z,9.711657
2022-08-27T10:49:00.108Z,9.711741
2022-08-27T10:50:00.082Z,9.711814
2022-08-27T10:51:00.072Z,9.711792
2022-08-27T10:52:00.043Z,9.711727
2022-08-27T10:53:00.041Z,9.711616
2022-08-27T10:54:00.030Z,9.711647
2022-08-27T10:55:00.026Z,9.711697
2022-08-27T10:56:00.036Z,9.711702
2022-08-27T10:57:24.593Z,9.711736
2022-08-27T10:58:02.001Z,9.711747
2022-08-27T10:59:01.015Z,9.711751
2022-08-27T10:59:59.981Z,9.711672
2022-08-27T11:01:00.021Z,9.711612
2022-08-27T11:02:00.021Z,9.711590
2022-08-27T11:02:59.971Z,9.711605
2022-08-27T11:03:59.957Z,9.711598
2022-08-27T11:04:59.949Z,9.711603
2022-08-27T11:05:59.947Z,9.711637
2022-08-27T11:06:59.926Z,9.711617
2022-08-27T11:07:59.928Z,9.711607
2022-08-27T11:09:00.858Z,9.711599
2022-08-27T11:10:00.903Z,9.711595
2022-08-27T11:11:11.795Z,9.711550
2022-08-27T11:12:17.128Z,9.711604
2022-08-27T11:13:01.880Z,9.711577
2022-08-27T11:14:01.246Z,9.711561
2022-08-27T11:14:59.869Z,9.711556
2022-08-27T11:16:00.951Z,9.711543
2022-08-27T11:16:59.851Z,9.711574
2022-08-27T11:17:59.877Z,9.711547
2022-08-27T11:18:59.837Z,9.711573
2022-08-27T11:19:59.829Z,9.711591
2022-08-27T11:20:59.840Z,9.711573
2022-08-27T11:21:59.818Z,9.711579
2022-08-27T11:22:59.810Z,9.711631
2022-08-27T11:23:59.792Z,9.711581
2022-08-27T11:24:59.780Z,9.711609
2022-08-27T11:26:02.192Z,9.711579
2022-08-27T11:26:59.769Z,9.711567
2022-08-27T11:27:59.764Z,9.711546
2022-08-27T11:28:59.779Z,9.711577
2022-08-27T11:30:00.168Z,9.711552
2022-08-27T11:30:59.734Z,9.711572
2022-08-27T11:31:59.765Z,9.711553
2022-08-27T11:32:59.717Z,9.711534
2022-08-27T11:33:59.714Z,9.711530
2022-08-27T11:34:59.699Z,9.711590
2022-08-27T11:35:59.721Z,9.711589
2022-08-27T11:36:59.708Z,9.711625
2022-08-27T11:37:59.681Z,9.711598
2022-08-27T11:39:00.369Z,9.711583
2022-08-27T11:39:59.686Z,9.711567
2022-08-27T11:40:59.671Z,9.711493
2022-08-27T11:41:59.646Z,9.711688
2022-08-27T11:42:59.638Z,9.711670
2022-08-27T11:43:59.637Z,9.711463
2022-08-27T11:44:59.626Z,9.711500
2022-08-27T11:45:59.718Z,9.711526
2022-08-27T11:46:59.670Z,9.711626
2022-08-27T11:47:59.603Z,9.711687
2022-08-27T11:49:00.378Z,9.711792
2022-08-27T11:49:59.585Z,9.711716
2022-08-27T11:50:59.583Z,9.711512
2022-08-27T11:52:00.310Z,9.711657
2022-08-27T11:52:59.556Z,9.711603
2022-08-27T11:53:59.558Z,9.711610
2022-08-27T11:54:59.544Z,9.711826
2022-08-27T11:55:59.542Z,9.711842
2022-08-27T11:56:59.527Z,9.711997
2022-08-27T11:57:59.516Z,9.711679